Time;durP1;ratioP1;P1;durP2;ratioP2;P2;SDS_P1;SDS_P2;PMS_P1;PMS_P2;Temp;Humidity;BMP_temperature;BMP_pressure;BME280_temperature;BME280_humidity;BME280_pressure;Samples;Min_cycle;Max_cycle;Signal;HPM_P1;HPM_P2
2022/11/18 00:01:25;;;;;;;26.77;17.38;;;6.80;99.90;;;;;;5050587;28;20136;-78
2022/11/18 00:03:51;;;;;;;28.65;18.48;;;6.80;99.90;;;;;;5032547;28;20072;-78
2022/11/18 00:06:26;;;;;;;27.02;17.52;;;6.80;99.90;;;;;;5050820;28;20475;-80
2022/11/18 00:08:53;;;;;;;26.67;16.95;;;6.80;99.90;;;;;;5033000;28;20492;-82
2022/11/18 00:14:18;;;;;;;29.38;18.83;;;6.80;99.90;;;;;;5050484;28;20529;-83
2022/11/18 00:16:48;;;;;;;27.70;18.05;;;6.80;99.90;;;;;;5050775;28;20049;-80
2022/11/18 00:19:15;;;;;;;26.67;17.17;;;6.80;99.90;;;;;;5016030;28;20044;-81
2022/11/18 00:21:40;;;;;;;25.30;16.48;;;6.80;99.90;;;;;;5032586;28;20063;-79
2022/11/18 00:24:07;;;;;;;27.95;16.45;;;6.80;99.90;;;;;;5050531;28;20397;-85
2022/11/18 00:26:33;;;;;;;26.73;18.08;;;6.80;99.90;;;;;;5034841;28;20064;-80
2022/11/18 00:28:59;;;;;;;26.45;17.00;;;6.80;99.90;;;;;;5050809;28;20041;-80
2022/11/18 00:31:24;;;;;;;23.23;16.45;;;6.80;99.90;;;;;;5050914;28;20148;-80
2022/11/18 00:33:50;;;;;;;27.90;17.00;;;6.80;99.90;;;;;;5050553;28;20133;-82
2022/11/18 00:36:16;;;;;;;27.45;17.40;;;6.80;99.90;;;;;;5032164;28;20087;-80
2022/11/18 00:38:42;;;;;;;24.65;16.17;;;6.80;99.90;;;;;;5031984;28;20052;-83
2022/11/18 00:41:13;;;;;;;28.50;16.50;;;6.80;99.90;;;;;;5051067;28;20128;-78
2022/11/18 00:43:40;;;;;;;28.70;16.98;;;6.80;99.90;;;;;;5055830;28;20076;-85
2022/11/18 00:46:09;;;;;;;25.85;16.52;;;6.80;99.90;;;;;;5054102;28;20044;-84
2022/11/18 00:48:35;;;;;;;26.35;17.00;;;6.80;99.90;;;;;;5053641;28;20867;-83
2022/11/18 00:51:14;;;;;;;26.25;15.98;;;6.80;99.90;;;;;;5053291;28;20048;-81
2022/11/18 00:53:41;;;;;;;24.05;16.00;;;6.80;99.90;;;;;;5053411;28;20056;-82
2022/11/18 00:56:08;;;;;;;28.50;17.67;;;6.80;99.90;;;;;;5053615;28;20572;-83
2022/11/18 00:58:34;;;;;;;25.25;16.60;;;6.80;99.90;;;;;;5053602;28;20103;-81
2022/11/18 01:01:01;;;;;;;24.50;16.10;;;6.80;99.90;;;;;;5054261;28;20530;-80
2022/11/18 01:03:28;;;;;;;24.75;15.55;;;6.80;99.90;;;;;;5035500;28;20045;-82
2022/11/18 01:05:54;;;;;;;22.73;15.68;;;6.80;99.90;;;;;;5035755;28;20045;-82
2022/11/18 01:08:20;;;;;;;24.30;15.20;;;6.80;99.90;;;;;;5052976;28;20057;-81
2022/11/18 01:10:47;;;;;;;26.15;16.33;;;6.80;99.90;;;;;;5052958;28;20132;-83
2022/11/18 01:13:18;;;;;;;23.27;15.43;;;6.70;99.90;;;;;;5035370;28;20059;-85
2022/11/18 01:15:53;;;;;;;25.00;15.32;;;6.70;99.90;;;;;;5035513;28;20071;-80
2022/11/18 01:18:20;;;;;;;;;;;6.70;99.90;;;;;;5054940;28;20065;-79
2022/11/18 01:20:46;;;;;;;26.27;16.05;;;6.70;99.90;;;;;;5054009;28;19947;-80
2022/11/18 01:23:16;;;;;;;23.52;15.38;;;6.70;99.90;;;;;;5053279;28;20085;-79
2022/11/18 01:25:43;;;;;;;26.13;16.48;;;6.70;99.90;;;;;;5034621;28;20523;-81
2022/11/18 01:28:10;;;;;;;24.65;15.65;;;6.70;99.90;;;;;;5035470;28;20045;-83
2022/11/18 01:30:38;;;;;;;22.65;15.05;;;6.70;99.90;;;;;;5019028;28;20049;-81
2022/11/18 01:33:05;;;;;;;29.60;16.27;;;6.70;99.90;;;;;;5052586;28;20079;-84
2022/11/18 01:35:39;;;;;;;27.27;15.63;;;6.70;99.90;;;;;;5018155;28;20131;-84
2022/11/18 01:38:06;;;;;;;27.00;17.17;;;6.70;99.90;;;;;;5035253;28;20572;-80
2022/11/18 01:40:32;;;;;;;28.77;17.02;;;6.70;99.90;;;;;;5052804;28;20044;-83
2022/11/18 01:43:04;;;;;;;31.77;18.13;;;6.70;99.90;;;;;;5052334;28;20051;-84
2022/11/18 01:45:50;;;;;;;31.05;15.98;;;6.70;99.90;;;;;;5053187;28;20092;-83
2022/11/18 01:48:32;;;;;;;31.02;18.75;;;6.70;99.90;;;;;;5052937;28;20095;-84
2022/11/18 01:51:06;;;;;;;30.17;18.20;;;6.70;99.90;;;;;;5052738;28;20091;-83
2022/11/18 01:53:35;;;;;;;30.83;18.08;;;6.70;99.90;;;;;;5033764;28;20130;-83
2022/11/18 01:56:06;;;;;;;38.90;19.98;;;6.70;99.90;;;;;;5034358;28;20049;-84
2022/11/18 01:58:42;;;;;;;31.23;18.00;;;6.70;99.90;;;;;;5052120;28;20053;-84
2022/11/18 02:01:08;;;;;;;37.97;20.15;;;6.60;99.90;;;;;;5052921;28;20045;-83
2022/11/18 02:03:34;;;;;;;35.42;19.48;;;6.60;99.90;;;;;;5035180;28;20048;-83
2022/11/18 02:06:03;;;;;;;38.03;18.75;;;6.60;99.90;;;;;;5034158;28;20056;-78
2022/11/18 02:08:30;;;;;;;37.30;21.95;;;6.60;99.90;;;;;;5034312;28;20089;-79
2022/11/18 02:10:56;;;;;;;34.25;19.73;;;6.60;99.90;;;;;;5052032;28;20040;-81
2022/11/18 02:13:23;;;;;;;34.72;19.73;;;6.60;99.90;;;;;;5052000;28;20057;-81
2022/11/18 02:16:12;;;;;;;40.05;18.98;;;6.60;99.90;;;;;;5052383;28;20496;-80
2022/11/18 02:18:45;;;;;;;31.90;18.52;;;6.60;99.90;;;;;;5036480;28;20068;-80
2022/11/18 02:21:17;;;;;;;35.60;20.35;;;6.60;99.90;;;;;;5034290;28;20049;-84
2022/11/18 02:24:17;;;;;;;38.22;21.30;;;6.60;99.90;;;;;;5051821;28;20103;-81
2022/11/18 02:27:01;;;;;;;42.63;21.48;;;6.60;99.90;;;;;;5000240;28;20435;-81
2022/11/18 02:29:57;;;;;;;37.85;19.85;;;6.60;99.90;;;;;;5033774;28;20060;-82
2022/11/18 02:32:36;;;;;;;38.25;20.25;;;6.60;99.90;;;;;;5049743;28;20156;-85
2022/11/18 02:35:17;;;;;;;41.90;21.23;;;6.60;99.90;;;;;;5034468;28;20052;-83
2022/11/18 02:37:53;;;;;;;36.95;21.10;;;6.60;99.90;;;;;;5034496;28;20053;-84
2022/11/18 02:40:28;;;;;;;39.58;21.00;;;6.60;99.90;;;;;;5051827;28;20053;-85
2022/11/18 02:43:31;;;;;;;37.40;21.30;;;6.50;99.90;;;;;;5051196;28;20056;-83
2022/11/18 02:46:02;;;;;;;38.65;20.77;;;6.50;99.90;;;;;;5045625;28;20049;-82
2022/11/18 02:48:31;;;;;;;36.55;19.60;;;6.50;99.90;;;;;;5034430;28;20578;-86
2022/11/18 02:50:59;;;;;;;42.90;20.52;;;6.50;99.90;;;;;;5033711;28;20057;-83
2022/11/18 02:53:28;;;;;;;37.35;20.27;;;6.50;99.90;;;;;;5051800;28;20127;-82
2022/11/18 02:55:55;;;;;;;41.53;21.45;;;6.50;99.90;;;;;;5051652;28;20371;-81
2022/11/18 02:58:22;;;;;;;38.38;20.65;;;6.50;99.90;;;;;;5050984;28;20390;-81
2022/11/18 03:00:56;;;;;;;39.50;20.73;;;6.50;99.90;;;;;;5051280;28;20049;-84
2022/11/18 03:03:34;;;;;;;41.97;21.60;;;6.50;99.90;;;;;;5052324;28;20056;-84
2022/11/18 03:06:18;;;;;;;39.15;20.55;;;6.50;99.90;;;;;;5033046;28;20064;-81
2022/11/18 03:08:52;;;;;;;45.40;20.60;;;6.50;99.90;;;;;;5051321;28;20067;-80
2022/11/18 03:11:22;;;;;;;40.08;20.88;;;6.40;99.90;;;;;;5033597;28;20109;-82
2022/11/18 03:14:01;;;;;;;45.38;21.65;;;6.40;99.90;;;;;;5033011;28;20535;-82
2022/11/18 03:16:59;;;;;;;43.42;22.60;;;6.50;99.90;;;;;;5050897;28;20520;-84
2022/11/18 03:19:43;;;;;;;40.50;21.35;;;6.40;99.90;;;;;;5032890;28;20060;-79
2022/11/18 03:22:32;;;;;;;44.00;22.20;;;6.40;99.90;;;;;;5032756;28;20048;-85
2022/11/18 03:25:10;;;;;;;45.95;21.80;;;6.40;99.90;;;;;;5031745;28;20110;-81
2022/11/18 03:28:01;;;;;;;40.47;21.27;;;6.40;99.90;;;;;;5066700;28;20087;-82
2022/11/18 03:30:29;;;;;;;48.90;23.38;;;6.40;99.90;;;;;;5033471;28;20095;-84
2022/11/18 03:33:05;;;;;;;46.33;22.65;;;6.40;99.90;;;;;;5050745;28;20126;-84
2022/11/18 03:35:36;;;;;;;43.55;22.42;;;6.40;99.90;;;;;;5050741;28;20059;-78
2022/11/18 03:38:12;;;;;;;41.83;22.20;;;6.40;99.90;;;;;;5051200;28;20053;-83
2022/11/18 03:40:41;;;;;;;45.15;22.15;;;6.40;99.90;;;;;;5033796;28;20053;-86
2022/11/18 03:43:18;;;;;;;40.92;22.10;;;6.40;99.90;;;;;;5033861;28;20056;-85
2022/11/18 03:45:50;;;;;;;39.95;20.95;;;6.30;99.90;;;;;;5032744;28;20576;-83
2022/11/18 03:48:21;;;;;;;50.30;21.55;;;6.30;99.90;;;;;;5033531;28;20399;-81
2022/11/18 03:50:51;;;;;;;40.72;20.67;;;6.30;99.90;;;;;;5050815;28;20140;-81
2022/11/18 03:53:19;;;;;;;39.50;19.45;;;6.30;99.90;;;;;;5033430;28;20571;-80
2022/11/18 03:55:52;;;;;;;38.80;19.50;;;6.30;99.90;;;;;;5053458;28;20115;-83
2022/11/18 03:58:37;;;;;;;36.53;19.42;;;6.30;99.90;;;;;;5052986;28;20045;-83
2022/11/18 04:01:13;;;;;;;34.10;18.70;;;6.30;99.90;;;;;;5051447;28;20151;-81
2022/11/18 04:03:41;;;;;;;38.38;19.90;;;6.20;99.90;;;;;;5051535;28;20132;-80
2022/11/18 04:06:23;;;;;;;34.60;19.98;;;6.30;99.90;;;;;;5033819;28;20531;-79
2022/11/18 04:08:54;;;;;;;34.50;18.55;;;6.30;99.90;;;;;;5034577;28;20395;-82
2022/11/18 04:14:17;;;;;;;33.90;18.45;;;6.30;99.90;;;;;;5052398;28;20053;-78
2022/11/18 04:16:45;;;;;;;39.35;19.52;;;6.30;99.90;;;;;;5051779;28;20450;-81
2022/11/18 04:19:11;;;;;;;34.13;19.17;;;6.30;99.90;;;;;;5054602;28;20044;-79
2022/11/18 04:21:37;;;;;;;34.88;18.08;;;6.20;99.90;;;;;;5055048;28;20052;-82
2022/11/18 04:24:03;;;;;;;34.78;17.17;;;6.30;99.90;;;;;;5035879;28;20449;-81
2022/11/18 04:26:30;;;;;;;34.30;18.95;;;6.30;99.90;;;;;;5055547;28;20458;-78
2022/11/18 04:28:56;;;;;;;33.28;18.33;;;6.30;99.90;;;;;;5036649;28;20067;-79
2022/11/18 04:31:23;;;;;;;31.25;17.70;;;6.30;99.90;;;;;;5054222;28;20048;-83
2022/11/18 04:33:49;;;;;;;33.72;18.92;;;6.30;99.90;;;;;;5038918;28;20122;-78
2022/11/18 04:36:15;;;;;;;35.55;18.52;;;6.30;99.90;;;;;;5036358;28;20513;-83
2022/11/18 04:38:41;;;;;;;35.38;18.45;;;6.30;99.90;;;;;;5054820;28;20501;-81
2022/11/18 04:41:07;;;;;;;31.33;17.20;;;6.30;99.90;;;;;;5036259;28;20071;-80
2022/11/18 04:43:33;;;;;;;33.72;17.85;;;6.30;99.90;;;;;;5035866;28;20079;-82
2022/11/18 04:45:58;;;;;;;33.10;17.95;;;6.30;99.90;;;;;;5054313;28;20052;-79
2022/11/18 04:48:24;;;;;;;32.42;17.83;;;6.20;99.90;;;;;;5055243;28;20053;-82
2022/11/18 04:50:53;;;;;;;33.83;18.15;;;6.30;99.90;;;;;;5036111;28;20061;-80
2022/11/18 04:53:19;;;;;;;31.42;18.48;;;6.30;99.90;;;;;;5037918;28;20258;-82
2022/11/18 04:55:45;;;;;;;30.50;17.60;;;6.30;99.90;;;;;;5054583;28;20053;-83
2022/11/18 04:58:11;;;;;;;31.85;17.27;;;6.30;99.90;;;;;;5019542;28;20103;-81
2022/11/18 05:00:37;;;;;;;30.88;16.52;;;6.30;99.90;;;;;;5035906;28;20052;-79
2022/11/18 05:03:03;;;;;;;33.13;18.20;;;6.20;99.90;;;;;;5036208;28;20048;-79
2022/11/18 05:05:29;;;;;;;31.63;17.48;;;6.20;99.90;;;;;;5037644;28;20083;-86
2022/11/18 05:07:57;;;;;;;30.42;16.77;;;6.20;99.90;;;;;;5038231;28;20049;-84
2022/11/18 05:10:23;;;;;;;35.72;17.00;;;6.20;99.90;;;;;;5055071;28;20045;-79
2022/11/18 05:12:49;;;;;;;32.13;16.20;;;6.20;99.90;;;;;;5053596;28;20052;-81
2022/11/18 05:15:17;;;;;;;28.30;15.68;;;6.20;99.90;;;;;;5035748;28;20396;-78
2022/11/18 05:17:43;;;;;;;29.48;15.98;;;6.20;99.90;;;;;;5053363;28;20041;-82
2022/11/18 05:20:11;;;;;;;30.92;15.80;;;6.20;99.90;;;;;;5054312;28;20061;-82
2022/11/18 05:22:36;;;;;;;24.33;12.80;;;6.20;99.90;;;;;;5054283;28;20053;-80
2022/11/18 05:25:03;;;;;;;26.23;14.88;;;6.10;99.90;;;;;;5036398;28;20068;-81
2022/11/18 05:27:29;;;;;;;29.02;15.65;;;6.10;99.90;;;;;;5055364;28;20128;-79
2022/11/18 05:29:55;;;;;;;30.65;16.73;;;6.10;99.90;;;;;;5053867;28;20060;-77
2022/11/18 05:32:21;;;;;;;33.65;15.18;;;6.10;99.90;;;;;;5056987;28;20500;-82
2022/11/18 05:34:47;;;;;;;30.70;14.80;;;6.10;99.90;;;;;;5053875;28;20056;-81
2022/11/18 05:37:13;;;;;;;28.88;15.23;;;6.10;99.90;;;;;;5054179;28;20045;-78
2022/11/18 05:39:39;;;;;;;31.67;17.38;;;6.10;99.90;;;;;;5053744;28;20070;-79
2022/11/18 05:44:50;;;;;;;25.20;14.63;;;6.10;99.90;;;;;;5055206;28;20063;-83
2022/11/18 05:47:19;;;;;;;25.75;14.63;;;6.00;99.90;;;;;;5035717;28;20045;-78
2022/11/18 05:49:45;;;;;;;25.70;15.27;;;6.00;99.90;;;;;;5052195;28;20045;-80
2022/11/18 05:52:11;;;;;;;29.08;16.00;;;6.00;99.90;;;;;;5018467;28;20139;-78
2022/11/18 05:54:41;;;;;;;30.50;16.02;;;6.00;99.90;;;;;;5034777;28;20124;-80
2022/11/18 05:57:07;;;;;;;26.15;14.95;;;6.00;99.90;;;;;;5052284;28;20045;-78
2022/11/18 05:59:33;;;;;;;28.10;15.57;;;6.00;99.90;;;;;;5052069;28;20049;-77
2022/11/18 06:02:03;;;;;;;28.90;15.70;;;6.00;99.90;;;;;;5034622;28;20398;-77
2022/11/18 06:04:39;;;;;;;31.67;15.13;;;6.00;99.90;;;;;;5053909;28;20045;-80
2022/11/18 06:07:08;;;;;;;29.02;15.02;;;6.00;99.90;;;;;;5052457;28;20049;-78
2022/11/18 06:09:38;;;;;;;25.75;14.45;;;6.00;99.90;;;;;;5034647;28;20401;-81
2022/11/18 06:12:05;;;;;;;29.42;14.65;;;6.00;99.90;;;;;;5052831;28;20060;-78
2022/11/18 06:14:41;;;;;;;36.08;17.60;;;6.00;99.90;;;;;;5034828;28;20153;-79
2022/11/18 06:17:12;;;;;;;31.55;16.58;;;6.00;99.90;;;;;;5052798;28;20052;-83
2022/11/18 06:19:39;;;;;;;31.00;16.05;;;6.00;99.90;;;;;;5052606;28;20061;-84
2022/11/18 06:22:05;;;;;;;33.92;15.63;;;6.00;99.90;;;;;;5034696;28;20052;-78
2022/11/18 06:24:32;;;;;;;35.28;16.00;;;6.00;99.90;;;;;;5051578;28;20049;-84
2022/11/18 06:26:59;;;;;;;32.70;16.27;;;5.90;99.90;;;;;;5034038;28;20120;-80
2022/11/18 06:29:25;;;;;;;32.30;15.25;;;5.90;99.90;;;;;;5034106;28;20568;-79
2022/11/18 06:31:51;;;;;;;31.13;16.23;;;6.00;99.90;;;;;;5017630;28;20060;-83
2022/11/18 06:34:17;;;;;;;34.42;16.00;;;5.90;99.90;;;;;;5034099;28;20057;-83
2022/11/18 06:36:43;;;;;;;31.98;15.23;;;5.90;99.90;;;;;;5053224;28;20699;-85
2022/11/18 06:39:09;;;;;;;31.80;15.57;;;5.90;99.90;;;;;;5034834;28;20417;-79
2022/11/18 06:41:35;;;;;;;30.50;14.88;;;5.90;99.90;;;;;;5033039;28;20052;-78
2022/11/18 06:44:00;;;;;;;30.92;16.38;;;5.90;99.90;;;;;;5051111;28;20110;-81
2022/11/18 06:47:08;;;;;;;36.47;17.48;;;5.90;99.90;;;;;;5051382;28;20052;-83
2022/11/18 06:49:15;;;;;;;31.50;16.30;;;5.90;99.90;;;;;;5026650;28;20092;-84
2022/11/18 06:51:41;;;;;;;30.17;17.88;;;5.90;99.90;;;;;;5052668;28;20059;-83
2022/11/18 06:54:07;;;;;;;39.70;18.33;;;5.90;99.90;;;;;;5018255;28;20055;-78
2022/11/18 06:56:34;;;;;;;31.58;15.93;;;5.90;99.90;;;;;;5016848;28;20083;-78
2022/11/18 06:59:00;;;;;;;31.67;15.75;;;5.90;99.90;;;;;;5033357;28;20053;-80
2022/11/18 07:01:28;;;;;;;41.15;18.20;;;5.90;99.90;;;;;;5051141;28;20401;-82
2022/11/18 07:03:54;;;;;;;38.38;17.73;;;5.90;99.90;;;;;;5052763;28;20053;-82
2022/11/18 07:06:25;;;;;;;34.63;16.63;;;5.80;99.90;;;;;;5017335;28;20099;-85
2022/11/18 07:08:52;;;;;;;37.15;17.45;;;5.90;99.90;;;;;;5053357;28;20082;-83
2022/11/18 07:11:24;;;;;;;38.45;17.80;;;5.80;99.90;;;;;;5051488;28;20041;-80
2022/11/18 07:13:51;;;;;;;39.85;17.42;;;5.80;99.90;;;;;;5050657;28;20118;-85
2022/11/18 07:16:22;;;;;;;40.65;18.42;;;5.80;99.90;;;;;;5033781;28;20128;-83
2022/11/18 07:18:50;;;;;;;36.00;17.27;;;5.80;99.90;;;;;;5051743;28;20382;-80
2022/11/18 07:21:21;;;;;;;36.50;17.73;;;5.80;99.90;;;;;;5034551;28;20432;-81
2022/11/18 07:23:48;;;;;;;43.28;18.58;;;5.80;99.90;;;;;;5051371;28;20060;-80
2022/11/18 07:26:14;;;;;;;40.92;18.05;;;5.70;99.90;;;;;;5036891;28;20048;-83
2022/11/18 07:28:40;;;;;;;39.45;18.17;;;5.80;99.90;;;;;;5052356;28;20057;-80
2022/11/18 07:31:10;;;;;;;43.75;19.02;;;5.70;99.90;;;;;;5033957;28;20079;-83
2022/11/18 07:33:37;;;;;;;46.85;19.70;;;5.70;99.90;;;;;;5051980;28;20106;-82
2022/11/18 07:36:06;;;;;;;41.75;18.30;;;5.70;99.90;;;;;;5034182;28;20060;-79
2022/11/18 07:38:33;;;;;;;45.72;18.67;;;5.70;99.90;;;;;;5051886;28;20053;-79
2022/11/18 07:41:07;;;;;;;42.35;19.20;;;5.70;99.90;;;;;;5051779;28;20060;-81
2022/11/18 07:43:34;;;;;;;41.97;18.30;;;5.70;99.90;;;;;;5033253;28;20198;-82
2022/11/18 07:46:12;;;;;;;46.53;18.13;;;5.70;99.90;;;;;;5033202;28;20528;-84
2022/11/18 07:48:39;;;;;;;51.38;20.17;;;5.80;99.90;;;;;;5050599;28;20802;-78
2022/11/18 07:51:05;;;;;;;40.72;18.95;;;5.80;99.90;;;;;;5033012;28;20639;-78
2022/11/18 07:53:32;;;;;;;42.03;18.48;;;5.80;99.90;;;;;;5054642;28;20389;-78
2022/11/18 07:55:58;;;;;;;43.50;19.17;;;5.70;99.90;;;;;;5055071;28;20041;-81
2022/11/18 07:58:25;;;;;;;40.28;17.67;;;5.80;99.90;;;;;;5054973;28;20055;-85
2022/11/18 08:00:54;;;;;;;37.92;16.80;;;5.80;99.90;;;;;;5054607;28;20401;-79
2022/11/18 08:03:27;;;;;;;50.33;18.58;;;5.80;99.90;;;;;;5054280;28;20524;-83
2022/11/18 08:05:58;;;;;;;36.60;17.50;;;5.80;99.90;;;;;;5036630;28;20047;-83
2022/11/18 08:08:24;;;;;;;40.80;16.85;;;5.80;99.90;;;;;;5054507;28;20045;-79
2022/11/18 08:10:50;;;;;;;40.28;17.50;;;5.80;99.90;;;;;;5054285;28;20097;-76
2022/11/18 08:13:16;;;;;;;41.50;18.25;;;5.80;99.90;;;;;;5054358;28;20135;-79
2022/11/18 08:15:42;;;;;;;39.17;17.58;;;5.70;99.90;;;;;;5054500;28;20055;-83
2022/11/18 08:18:08;;;;;;;38.53;18.13;;;5.80;99.90;;;;;;5036510;28;20098;-79
2022/11/18 08:20:35;;;;;;;43.08;18.08;;;5.80;99.90;;;;;;5019908;28;20052;-80
2022/11/18 08:23:00;;;;;;;44.95;18.67;;;5.80;99.90;;;;;;5037609;28;20156;-80
2022/11/18 08:25:26;;;;;;;42.78;19.40;;;5.80;99.90;;;;;;5035594;28;20128;-79
2022/11/18 08:27:52;;;;;;;36.55;17.17;;;5.80;99.90;;;;;;5054436;28;20060;-83
2022/11/18 08:30:18;;;;;;;33.95;16.05;;;5.80;99.90;;;;;;5036085;28;20393;-78
2022/11/18 08:32:44;;;;;;;39.88;17.15;;;5.80;99.90;;;;;;5054019;28;20060;-78
2022/11/18 08:35:10;;;;;;;36.05;17.67;;;5.80;99.90;;;;;;5036220;28;20049;-79
2022/11/18 08:37:36;;;;;;;35.58;16.42;;;5.80;99.90;;;;;;5053960;28;20060;-83
2022/11/18 08:40:02;;;;;;;36.15;17.48;;;5.80;99.90;;;;;;5035965;28;20052;-86
2022/11/18 08:42:28;;;;;;;36.72;17.45;;;5.80;99.90;;;;;;5053586;28;20049;-78
2022/11/18 08:44:54;;;;;;;35.33;17.02;;;5.80;99.90;;;;;;5035893;28;20044;-85
2022/11/18 08:47:20;;;;;;;36.22;17.70;;;5.80;99.90;;;;;;5053812;28;20057;-78
2022/11/18 08:49:46;;;;;;;35.17;16.23;;;5.80;99.90;;;;;;5035748;28;20079;-81
2022/11/18 08:52:12;;;;;;;30.92;16.52;;;5.80;99.90;;;;;;5035689;28;20045;-83
2022/11/18 08:54:38;;;;;;;27.58;15.30;;;5.80;99.90;;;;;;5035561;28;20044;-82
2022/11/18 08:57:04;;;;;;;30.15;16.67;;;5.80;99.90;;;;;;5053869;28;20473;-85
2022/11/18 08:59:31;;;;;;;33.00;17.50;;;5.80;99.90;;;;;;5036197;28;20147;-86
2022/11/18 09:01:57;;;;;;;30.42;15.30;;;5.80;99.90;;;;;;5054546;28;20500;-83
2022/11/18 09:04:23;;;;;;;34.47;15.98;;;5.80;99.90;;;;;;5034961;28;20060;-78
2022/11/18 09:06:49;;;;;;;30.13;15.38;;;5.80;99.90;;;;;;5054541;28;20056;-83
2022/11/18 09:09:15;;;;;;;30.38;14.73;;;5.80;99.90;;;;;;5022235;28;20064;-82
2022/11/18 09:11:41;;;;;;;34.30;14.43;;;5.90;99.90;;;;;;5055139;28;20540;-84
2022/11/18 09:14:10;;;;;;;29.90;14.05;;;5.90;99.90;;;;;;5035157;28;20064;-85
2022/11/18 09:16:36;;;;;;;24.95;13.05;;;5.90;99.90;;;;;;5054271;28;20045;-83
2022/11/18 09:19:03;;;;;;;28.20;14.00;;;5.90;99.90;;;;;;5054819;28;20052;-83
2022/11/18 09:21:29;;;;;;;26.83;13.68;;;5.90;99.90;;;;;;5053971;28;20044;-87
2022/11/18 09:23:55;;;;;;;27.45;13.68;;;5.90;99.90;;;;;;5053019;28;20137;-83
2022/11/18 09:26:25;;;;;;;26.90;14.90;;;5.90;99.90;;;;;;5035003;28;20123;-84
2022/11/18 09:28:54;;;;;;;23.92;13.15;;;5.90;99.90;;;;;;5034786;28;20053;-82
2022/11/18 09:31:20;;;;;;;27.08;14.13;;;5.90;99.90;;;;;;5053401;28;20390;-85
2022/11/18 09:33:46;;;;;;;24.58;13.20;;;6.00;99.90;;;;;;5053256;28;20052;-80
2022/11/18 09:36:16;;;;;;;25.50;13.20;;;6.00;99.90;;;;;;5035070;28;20068;-87
2022/11/18 09:38:42;;;;;;;28.95;14.00;;;6.00;99.90;;;;;;5052816;28;20055;-86
2022/11/18 09:41:29;;;;;;;29.63;13.88;;;6.10;99.90;;;;;;5034797;28;20053;-87
2022/11/18 09:44:25;;;;;;;24.58;12.80;;;6.10;99.90;;;;;;5035397;28;20063;-87
2022/11/18 09:47:26;;;;;;;25.08;12.02;;;6.10;99.90;;;;;;5053133;28;20090;-87
2022/11/18 09:49:58;;;;;;;25.73;12.43;;;6.10;99.90;;;;;;5052552;28;20061;-85
2022/11/18 09:52:28;;;;;;;24.45;12.88;;;6.10;99.90;;;;;;5018892;28;20131;-85
2022/11/18 09:54:54;;;;;;;25.40;11.65;;;6.10;99.90;;;;;;5052987;28;20088;-85
2022/11/18 09:57:24;;;;;;;23.08;12.63;;;6.10;99.90;;;;;;5052558;28;20056;-80
2022/11/18 09:59:52;;;;;;;29.05;13.88;;;6.10;99.90;;;;;;5034196;28;20060;-83
2022/11/18 10:02:47;;;;;;;29.15;14.30;;;6.00;99.90;;;;;;5035441;28;20068;-77
2022/11/18 10:05:23;;;;;;;;;;;6.00;99.90;;;;;;5052994;28;20053;-81
2022/11/18 10:08:03;;;;;;;30.73;13.15;;;5.90;99.90;;;;;;5034472;28;19927;-80
2022/11/18 10:10:36;;;;;;;29.90;13.07;;;5.90;99.90;;;;;;5052657;28;20095;-79
2022/11/18 10:13:15;;;;;;;27.05;13.57;;;5.90;99.90;;;;;;5034387;28;20102;-83
2022/11/18 10:16:08;;;;;;;26.05;13.40;;;5.90;99.90;;;;;;5052260;28;20503;-84
2022/11/18 10:18:45;;;;;;;28.23;14.50;;;5.90;99.90;;;;;;5049534;28;20085;-82
2022/11/18 10:21:22;;;;;;;31.30;14.48;;;5.90;99.90;;;;;;5052040;28;20045;-82
2022/11/18 10:23:58;;;;;;;28.50;14.57;;;5.90;99.90;;;;;;5051324;28;20140;-79
2022/11/18 10:26:57;;;;;;;31.45;13.93;;;5.80;99.90;;;;;;5051518;28;20057;-85
2022/11/18 10:29:24;;;;;;;29.60;14.15;;;5.70;99.90;;;;;;5043890;28;20469;-81
2022/11/18 10:32:06;;;;;;;31.60;14.13;;;5.70;99.90;;;;;;5034141;28;20066;-81
2022/11/18 10:34:35;;;;;;;27.58;12.63;;;5.70;99.90;;;;;;5052522;28;20051;-80
2022/11/18 10:37:21;;;;;;;25.38;11.88;;;5.60;99.90;;;;;;5051713;28;20041;-83
2022/11/18 10:39:55;;;;;;;22.20;11.48;;;5.60;99.90;;;;;;5033804;28;20057;-81
2022/11/18 10:42:44;;;;;;;22.13;11.25;;;5.50;99.90;;;;;;5051615;28;20049;-80
2022/11/18 10:45:28;;;;;;;25.92;11.35;;;5.50;99.90;;;;;;5033448;28;20480;-84
2022/11/18 10:48:19;;;;;;;27.25;11.95;;;5.50;99.90;;;;;;5033188;28;20088;-83
2022/11/18 10:50:49;;;;;;;23.65;12.23;;;5.50;99.90;;;;;;5051367;28;20068;-80
2022/11/18 10:53:34;;;;;;;23.52;12.30;;;5.50;99.90;;;;;;5033378;28;20056;-79
2022/11/18 10:56:10;;;;;;;24.98;12.63;;;5.40;99.90;;;;;;5051441;28;20087;-79
2022/11/18 10:58:56;;;;;;;28.08;12.00;;;5.40;99.90;;;;;;5033342;28;20535;-84
2022/11/18 11:01:24;;;;;;;24.33;13.00;;;5.30;99.90;;;;;;5051180;28;20064;-80
2022/11/18 11:04:04;;;;;;;25.42;12.82;;;5.30;99.90;;;;;;5051381;28;20052;-81
2022/11/18 11:06:32;;;;;;;28.20;14.60;;;5.30;99.90;;;;;;5033686;28;20095;-83
2022/11/18 11:09:01;;;;;;;29.00;14.30;;;5.30;99.90;;;;;;5051059;28;20053;-83
2022/11/18 11:11:38;;;;;;;30.63;15.23;;;5.30;99.90;;;;;;5032989;28;20053;-80
2022/11/18 11:14:25;;;;;;;36.20;15.93;;;5.30;99.90;;;;;;5050893;28;20505;-78
2022/11/18 11:17:11;;;;;;;32.75;15.85;;;5.20;99.90;;;;;;5026455;28;20049;-82
2022/11/18 11:20:00;;;;;;;34.25;16.52;;;5.20;99.90;;;;;;5050876;28;20103;-82
2022/11/18 11:22:27;;;;;;;33.13;15.30;;;5.10;99.90;;;;;;5032869;28;20067;-84
2022/11/18 11:24:54;;;;;;;31.45;14.68;;;5.10;99.90;;;;;;5050748;28;20436;-85
2022/11/18 11:27:48;;;;;;;28.00;14.20;;;5.10;99.90;;;;;;5050700;28;20142;-82
2022/11/18 11:30:19;;;;;;;32.22;14.45;;;5.00;99.90;;;;;;5033499;28;20073;-82
2022/11/18 11:33:17;;;;;;;27.85;14.23;;;5.00;99.90;;;;;;5032736;28;20060;-78
2022/11/18 11:36:20;;;;;;;30.08;14.15;;;5.00;99.90;;;;;;5051493;28;20044;-82
2022/11/18 11:39:11;;;;;;;31.40;15.45;;;5.00;99.90;;;;;;5048274;28;20053;-81
2022/11/18 11:41:45;;;;;;;31.20;15.18;;;5.00;99.90;;;;;;5050584;28;20104;-80
2022/11/18 11:44:19;;;;;;;;;;;5.00;99.90;;;;;;5033713;28;20436;-84
2022/11/18 11:50:00;;;;;;;35.60;16.13;;;5.00;99.90;;;;;;5050855;28;20124;-77
2022/11/18 11:52:46;;;;;;;33.20;15.52;;;5.00;99.90;;;;;;5033366;28;20053;-79
2022/11/18 11:55:15;;;;;;;37.03;16.40;;;4.90;99.90;;;;;;5030327;28;20187;-79
2022/11/18 11:58:02;;;;;;;38.67;16.77;;;4.90;99.90;;;;;;5050963;28;20075;-77
2022/11/18 12:00:31;;;;;;;33.45;16.83;;;4.90;99.90;;;;;;5032553;28;20056;-82
2022/11/18 12:03:12;;;;;;;33.08;16.75;;;4.90;99.90;;;;;;5050894;28;20067;-82
2022/11/18 12:05:41;;;;;;;31.80;17.38;;;4.90;99.90;;;;;;5050359;28;20080;-79
2022/11/18 12:08:24;;;;;;;33.65;17.17;;;4.90;99.90;;;;;;5050510;28;20079;-79
2022/11/18 12:11:09;;;;;;;34.95;16.67;;;4.90;99.90;;;;;;5050870;28;20053;-79
2022/11/18 12:13:53;;;;;;;35.20;16.63;;;4.90;99.90;;;;;;5032546;28;20106;-79
2022/11/18 12:16:52;;;;;;;31.17;16.48;;;4.90;99.90;;;;;;5050818;28;20049;-80
2022/11/18 12:19:20;;;;;;;33.60;15.70;;;4.80;99.90;;;;;;5032124;28;20048;-81
2022/11/18 12:21:46;;;;;;;34.90;17.35;;;4.80;99.90;;;;;;5050509;28;20404;-80
2022/11/18 12:24:39;;;;;;;40.30;17.15;;;4.80;99.90;;;;;;5032135;28;20063;-82
2022/11/18 12:27:46;;;;;;;36.80;17.35;;;4.70;99.90;;;;;;5050327;28;20528;-82
2022/11/18 12:30:18;;;;;;;36.83;17.52;;;4.70;99.90;;;;;;5044146;28;20060;-80
2022/11/18 12:32:45;;;;;;;38.75;18.10;;;4.70;99.90;;;;;;5050789;28;20053;-79
2022/11/18 12:35:11;;;;;;;37.25;18.83;;;4.70;99.90;;;;;;5032464;28;20534;-79
2022/11/18 12:37:52;;;;;;;36.00;17.60;;;4.70;99.90;;;;;;5033881;28;20057;-79
2022/11/18 12:40:37;;;;;;;37.83;17.92;;;4.70;99.90;;;;;;5053773;28;20091;-81
2022/11/18 12:45:53;;;;;;;34.45;16.48;;;4.60;99.90;;;;;;5054507;28;20052;-81
2022/11/18 12:48:31;;;;;;;37.58;18.02;;;4.60;99.90;;;;;;5035951;28;20056;-79
2022/11/18 12:51:15;;;;;;;36.72;17.58;;;4.60;99.90;;;;;;5054825;28;20056;-84
2022/11/18 12:53:47;;;;;;;31.30;16.27;;;4.70;99.90;;;;;;5035789;28;20049;-80
2022/11/18 12:56:30;;;;;;;35.08;17.88;;;4.60;99.90;;;;;;5053373;28;20056;-81
2022/11/18 12:59:00;;;;;;;32.10;16.38;;;4.70;99.90;;;;;;5053455;28;20546;-81
2022/11/18 13:01:29;;;;;;;32.33;16.95;;;4.70;99.90;;;;;;5053380;28;20088;-84
2022/11/18 13:04:25;;;;;;;30.60;16.38;;;4.70;99.90;;;;;;5036245;28;20114;-84
2022/11/18 13:06:53;;;;;;;30.80;15.85;;;4.70;99.90;;;;;;5045354;28;20057;-81
2022/11/18 13:09:29;;;;;;;36.30;16.27;;;4.70;99.90;;;;;;5053785;28;20041;-82
2022/11/18 13:11:55;;;;;;;34.90;18.33;;;4.60;99.90;;;;;;5053667;28;20056;-83
2022/11/18 13:17:50;;;;;;;35.80;17.42;;;4.60;99.90;;;;;;5022014;28;20048;-85
2022/11/18 13:20:34;;;;;;;41.83;19.63;;;4.70;99.90;;;;;;5054140;28;20049;-84